Linton, North Dakota
Current Conditions -  °F | °C
As of 1:35 PM on Tuesday 21 Oct 2014 (Local Time) from K7L2 Reporting Station
Clear Clear  
Wind Chill: 75°   Ceiling: Unl
Heat Index: 75°   Visibility: 10mi
Dew Point: 46°   Wind: 21mph
Humidity: 36%   Direction: 140°SE
Pressure: 29.75"   Gusts: 29mph
Location:  46.27°N, 100.23°W
Report Text: K7L2 211835Z AUTO 14018G25KT 10SM CLR 24/08 A2975 RMK AO2 PWINO PNO
Loading
Personal Weather Stations






























Interactive Weather Map
Tropical Storm Tracking
New forecast layout! Learn more

10-Day Weather Forecast

Advertisements
Track Severe Weather on mobile